Time;durP1;ratioP1;P1;durP2;ratioP2;P2;SDS_P1;SDS_P2;PMS_P1;PMS_P2;Temp;Humidity;BMP_temperature;BMP_pressure;BME280_temperature;BME280_humidity;BME280_pressure;Samples;Min_cycle;Max_cycle;Signal;HPM_P1;HPM_P2
2022/12/04 00:01:10;;;;;;;34.70;19.07;;;-8.00;99.90;;;;;;5020286;28;20431;-76
2022/12/04 00:03:36;;;;;;;37.23;20.67;;;-8.00;99.90;;;;;;5016139;28;20500;-72
2022/12/04 00:06:23;;;;;;;40.93;21.47;;;-7.60;99.90;;;;;;5028079;28;20748;-76
2022/12/04 00:08:50;;;;;;;42.03;20.57;;;-8.10;99.90;;;;;;5015930;28;20455;-76
2022/12/04 00:11:19;;;;;;;33.87;20.63;;;-7.70;99.90;;;;;;5015969;28;20862;-76
2022/12/04 00:13:45;;;;;;;39.33;22.10;;;-7.50;99.90;;;;;;5016342;28;20425;-74
2022/12/04 00:16:14;;;;;;;36.13;22.13;;;-7.40;99.90;;;;;;5015738;28;20423;-78
2022/12/04 00:18:40;;;;;;;38.67;21.53;;;-7.00;99.90;;;;;;5026135;28;20480;-73
2022/12/04 00:21:09;;;;;;;40.37;19.27;;;-6.50;99.90;;;;;;5015457;28;20452;-77
2022/12/04 00:23:36;;;;;;;41.03;21.00;;;-6.30;99.90;;;;;;5015901;28;20239;-75
2022/12/04 00:26:14;;;;;;;36.37;19.00;;;-6.20;99.90;;;;;;5015524;28;20526;-77
2022/12/04 00:28:41;;;;;;;44.00;21.43;;;-2.80;99.90;;;;;;5015941;28;20441;-79
2022/12/04 00:31:09;;;;;;;37.73;20.13;;;-2.30;99.90;;;;;;5021631;28;20514;-79
2022/12/04 00:33:35;;;;;;;36.73;20.77;;;-2.10;99.90;;;;;;5015588;28;20453;-80
2022/12/04 00:36:04;;;;;;;43.07;23.73;;;-0.60;99.90;;;;;;5027595;28;20431;-79
2022/12/04 00:38:30;;;;;;;39.83;21.67;;;0.20;99.90;;;;;;5015734;28;20169;-76
2022/12/04 00:40:56;;;;;;;40.37;20.87;;;0.00;99.90;;;;;;5015665;28;20431;-75
2022/12/04 00:43:23;;;;;;;41.70;20.73;;;-0.60;99.90;;;;;;5015490;28;20897;-79
2022/12/04 00:45:49;;;;;;;39.87;20.07;;;-1.20;99.90;;;;;;5015604;28;20422;-77
2022/12/04 00:48:15;;;;;;;35.20;20.30;;;-2.50;99.90;;;;;;5047164;28;20430;-74
2022/12/04 00:50:40;;;;;;;43.13;23.13;;;-2.60;99.90;;;;;;5015266;28;20495;-74
2022/12/04 00:53:06;;;;;;;36.23;21.40;;;-2.20;99.90;;;;;;5015275;28;20589;-77
2022/12/04 00:55:32;;;;;;;45.33;23.83;;;-2.00;99.90;;;;;;5015091;28;20261;-76
2022/12/04 00:57:58;;;;;;;43.70;21.50;;;-1.40;99.90;;;;;;5014919;28;20525;-73
2022/12/04 01:00:24;;;;;;;37.00;21.77;;;-6.00;99.90;;;;;;5015266;28;20193;-74
2022/12/04 01:02:49;;;;;;;39.43;21.67;;;-5.80;99.90;;;;;;5014757;28;20197;-75
2022/12/04 01:05:15;;;;;;;32.53;18.73;;;-6.00;99.90;;;;;;5015388;28;20439;-73
2022/12/04 01:07:41;;;;;;;39.10;21.37;;;-6.10;99.90;;;;;;5015037;28;20192;-75
2022/12/04 01:10:10;;;;;;;37.73;21.13;;;-5.30;99.90;;;;;;5015190;28;20209;-75
2022/12/04 01:12:36;;;;;;;37.47;19.97;;;-6.00;99.90;;;;;;5021214;28;20181;-78
2022/12/04 01:15:02;;;;;;;35.30;19.60;;;-6.00;99.90;;;;;;5021772;28;20931;-75
2022/12/04 01:17:28;;;;;;;36.03;19.87;;;-5.90;99.90;;;;;;5021109;28;20209;-74
2022/12/04 01:19:53;;;;;;;37.40;19.63;;;-6.00;99.90;;;;;;5021597;28;20805;-75
2022/12/04 01:22:19;;;;;;;38.33;19.57;;;-6.50;99.90;;;;;;5034445;28;20204;-74
2022/12/04 01:24:45;;;;;;;40.10;22.60;;;-6.60;99.90;;;;;;5021929;28;20193;-76
2022/12/04 01:27:10;;;;;;;48.43;23.47;;;-6.40;99.90;;;;;;5021558;28;20229;-75
2022/12/04 01:29:36;;;;;;;38.73;20.10;;;-6.30;99.90;;;;;;5021527;28;20201;-76
2022/12/04 01:32:03;;;;;;;37.63;21.13;;;-6.30;99.90;;;;;;5033694;28;20181;-73
2022/12/04 01:34:29;;;;;;;34.73;19.90;;;-6.00;99.90;;;;;;5021287;28;20434;-76
2022/12/04 01:36:54;;;;;;;35.50;20.33;;;-5.00;99.90;;;;;;5021718;28;20491;-75
2022/12/04 01:39:20;;;;;;;43.33;22.30;;;-5.90;99.90;;;;;;5021290;28;20217;-78
2022/12/04 01:41:46;;;;;;;39.30;21.03;;;-5.70;99.90;;;;;;5021418;28;20196;-77
2022/12/04 01:44:20;;;;;;;38.03;22.57;;;-6.00;99.90;;;;;;5021231;28;20275;-75
2022/12/04 01:46:54;;;;;;;40.63;20.93;;;-6.10;99.90;;;;;;5021074;28;20173;-76
2022/12/04 01:49:36;;;;;;;34.93;19.40;;;-6.00;99.90;;;;;;5021245;28;20504;-76
2022/12/04 01:52:24;;;;;;;33.67;19.83;;;-6.00;99.90;;;;;;5028330;28;20426;-74
2022/12/04 01:55:00;;;;;;;33.97;19.20;;;-6.10;99.90;;;;;;5020864;28;20476;-73
2022/12/04 01:57:30;;;;;;;36.13;21.47;;;-6.10;99.90;;;;;;5021172;28;20949;-74
2022/12/04 02:00:00;;;;;;;44.20;21.63;;;-6.20;99.90;;;;;;5021301;28;20434;-79
2022/12/04 02:02:32;;;;;;;38.20;21.13;;;-5.80;99.90;;;;;;5033598;28;20462;-78
2022/12/04 02:04:59;;;;;;;38.53;20.50;;;-5.70;99.90;;;;;;5023842;28;20474;-76
2022/12/04 02:07:25;;;;;;;38.03;19.57;;;-6.40;99.90;;;;;;5021146;28;20943;-78
2022/12/04 02:09:54;;;;;;;40.47;19.87;;;-6.40;99.90;;;;;;5020857;28;20484;-76
2022/12/04 02:12:31;;;;;;;33.30;18.57;;;-6.20;99.90;;;;;;5021076;28;20422;-79
2022/12/04 02:15:17;;;;;;;35.93;19.53;;;-6.10;99.90;;;;;;5021084;28;20418;-79
2022/12/04 02:18:24;;;;;;;36.77;17.97;;;-5.90;99.90;;;;;;5021008;28;20429;-75
2022/12/04 02:21:23;;;;;;;40.27;20.10;;;-6.00;99.90;;;;;;5021156;28;20426;-75
2022/12/04 02:24:07;;;;;;;39.60;21.93;;;-5.40;99.90;;;;;;5017331;28;20434;-72
2022/12/04 02:26:46;;;;;;;37.43;20.97;;;-5.50;99.90;;;;;;5017846;28;20587;-72
2022/12/04 02:29:41;;;;;;;36.33;19.37;;;-5.50;99.90;;;;;;5017857;28;20462;-73
2022/12/04 02:32:28;;;;;;;33.27;19.53;;;-5.90;99.90;;;;;;5023238;28;20450;-73
2022/12/04 02:34:53;;;;;;;33.40;19.03;;;-5.80;99.90;;;;;;5017428;28;20526;-74
2022/12/04 02:37:36;;;;;;;36.50;18.67;;;-5.60;99.90;;;;;;5017795;28;20521;-73
2022/12/04 02:40:09;;;;;;;37.73;20.17;;;-5.70;99.90;;;;;;5017577;28;20185;-72
2022/12/04 02:42:58;;;;;;;38.50;21.47;;;-6.10;99.90;;;;;;5017702;28;20426;-72
2022/12/04 02:45:29;;;;;;;34.97;18.67;;;-5.60;99.90;;;;;;5017029;28;20435;-73
2022/12/04 02:47:59;;;;;;;42.20;22.13;;;-5.50;99.90;;;;;;5030110;28;20434;-72
2022/12/04 02:50:27;;;;;;;39.87;21.07;;;-6.20;99.90;;;;;;5017458;28;20527;-74
2022/12/04 02:52:59;;;;;;;38.80;19.93;;;-6.20;99.90;;;;;;5017666;28;20417;-74
2022/12/04 02:55:30;;;;;;;36.83;20.20;;;-6.30;99.90;;;;;;5016949;28;20442;-73
2022/12/04 02:58:01;;;;;;;37.20;21.40;;;-6.30;99.90;;;;;;5030639;28;20898;-74
2022/12/04 03:00:29;;;;;;;40.47;23.77;;;-6.30;99.90;;;;;;5017139;28;20426;-73
2022/12/04 03:03:02;;;;;;;34.70;19.43;;;-5.70;99.90;;;;;;5030648;28;20928;-76
2022/12/04 03:05:50;;;;;;;40.00;20.90;;;-5.80;99.90;;;;;;5017659;28;20488;-76
2022/12/04 03:08:21;;;;;;;40.93;21.63;;;-5.60;99.90;;;;;;5031097;28;20438;-76
2022/12/04 03:10:54;;;;;;;37.67;20.13;;;-5.20;99.90;;;;;;5016869;28;20956;-75
2022/12/04 03:13:40;;;;;;;46.03;22.80;;;-4.50;99.90;;;;;;5017278;28;20561;-76
2022/12/04 03:16:12;;;;;;;41.40;21.97;;;-5.70;99.90;;;;;;5017165;28;20445;-73
2022/12/04 03:18:53;;;;;;;41.67;23.83;;;-5.90;99.90;;;;;;5017013;28;20775;-71
2022/12/04 03:21:23;;;;;;;38.23;22.37;;;-5.60;99.90;;;;;;5016813;28;20427;-73
2022/12/04 03:24:02;;;;;;;34.20;19.53;;;-5.00;99.90;;;;;;5016892;28;20504;-73
2022/12/04 03:26:35;;;;;;;36.27;18.97;;;-5.80;99.90;;;;;;5049083;28;20426;-71
2022/12/04 03:29:10;;;;;;;36.80;21.77;;;-5.40;99.90;;;;;;5016342;28;20944;-72
2022/12/04 03:31:42;;;;;;;37.20;20.43;;;-5.80;99.90;;;;;;5016830;28;20445;-72
2022/12/04 03:34:08;;;;;;;31.10;19.33;;;-5.60;99.90;;;;;;5016028;28;20423;-76
2022/12/04 03:36:45;;;;;;;37.33;20.27;;;-6.00;99.90;;;;;;5016281;28;20431;-72
2022/12/04 03:39:12;;;;;;;40.33;21.30;;;-5.40;99.90;;;;;;5016792;28;20425;-73
2022/12/04 03:41:58;;;;;;;39.00;21.17;;;-4.40;99.90;;;;;;5016954;28;20431;-72
2022/12/04 03:44:47;;;;;;;38.77;20.23;;;-4.80;99.90;;;;;;5021609;28;20435;-72
2022/12/04 03:47:28;;;;;;;34.10;19.53;;;-4.80;99.90;;;;;;5014315;28;20893;-75
2022/12/04 03:50:08;;;;;;;37.03;22.20;;;-5.10;99.90;;;;;;5016280;28;20512;-74
2022/12/04 03:53:19;;;;;;;37.57;20.97;;;-5.30;99.90;;;;;;5029527;28;21001;-73
2022/12/04 03:56:04;;;;;;;46.77;21.63;;;-5.30;99.90;;;;;;5029622;28;20438;-74
2022/12/04 03:58:33;;;;;;;39.20;21.00;;;-5.30;99.90;;;;;;5015974;28;20480;-74
2022/12/04 04:01:04;;;;;;;44.47;23.83;;;-5.40;99.90;;;;;;5016043;28;20430;-73
2022/12/04 04:03:38;;;;;;;34.17;19.73;;;-5.40;99.90;;;;;;5016209;28;20462;-72
2022/12/04 04:06:12;;;;;;;39.97;20.27;;;-4.40;99.90;;;;;;5020267;28;20513;-72
2022/12/04 04:08:41;;;;;;;33.93;20.53;;;-5.30;99.90;;;;;;5016578;28;20927;-74
2022/12/04 04:11:19;;;;;;;35.77;19.77;;;-5.10;99.90;;;;;;5015879;28;20430;-77
2022/12/04 04:25:06;;;;;;;37.77;20.63;;;-5.30;99.90;;;;;;5015838;28;20437;-74
2022/12/04 04:27:32;;;;;;;40.93;23.07;;;-3.70;99.90;;;;;;5015155;28;20457;-73
2022/12/04 04:29:58;;;;;;;38.33;20.00;;;-3.90;99.90;;;;;;5015814;28;20466;-73
2022/12/04 04:32:32;;;;;;;34.30;20.30;;;-5.30;99.90;;;;;;5015668;28;20419;-73
2022/12/04 04:35:10;;;;;;;36.17;22.07;;;-5.30;99.90;;;;;;5015773;28;20425;-73
2022/12/04 04:38:02;;;;;;;35.07;21.50;;;-5.10;99.90;;;;;;5015521;28;20423;-75
2022/12/04 04:40:53;;;;;;;38.73;19.37;;;-4.80;99.90;;;;;;5014179;28;20434;-73
2022/12/04 04:43:35;;;;;;;42.27;20.63;;;-5.50;99.90;;;;;;5015307;28;20888;-76
2022/12/04 04:46:13;;;;;;;41.03;19.73;;;-5.50;99.90;;;;;;5014906;28;20472;-75
2022/12/04 04:48:46;;;;;;;38.27;19.63;;;-5.50;99.90;;;;;;5028432;28;20786;-73
2022/12/04 04:51:12;;;;;;;36.97;21.63;;;-5.40;99.90;;;;;;5015488;28;20537;-71
2022/12/04 04:53:45;;;;;;;36.63;21.03;;;-5.40;99.90;;;;;;5015231;28;20457;-75
2022/12/04 04:56:11;;;;;;;40.10;22.27;;;-5.50;99.90;;;;;;5014675;28;20463;-74
2022/12/04 04:58:37;;;;;;;39.20;21.00;;;-5.50;99.90;;;;;;5015235;28;20461;-77
2022/12/04 05:01:15;;;;;;;36.87;21.77;;;-5.30;99.90;;;;;;5014978;28;20435;-75
2022/12/04 05:03:41;;;;;;;38.47;20.50;;;-5.20;99.90;;;;;;5014927;28;20189;-71
2022/12/04 05:06:07;;;;;;;37.73;21.30;;;-5.50;99.90;;;;;;5015121;28;20439;-71
2022/12/04 05:08:33;;;;;;;40.70;20.97;;;-4.20;99.90;;;;;;5015400;28;20473;-72
2022/12/04 05:10:59;;;;;;;40.20;21.33;;;-5.30;99.90;;;;;;5014946;28;20458;-72
2022/12/04 05:13:26;;;;;;;32.87;18.50;;;-4.50;99.90;;;;;;5015139;28;20893;-71
2022/12/04 05:16:06;;;;;;;39.93;21.50;;;-5.40;99.90;;;;;;5015095;28;20181;-72
2022/12/04 05:18:32;;;;;;;42.43;24.50;;;-5.30;99.90;;;;;;5015120;28;20430;-72
2022/12/04 05:20:58;;;;;;;35.57;21.87;;;-5.40;99.90;;;;;;5015016;28;20889;-73
2022/12/04 05:23:24;;;;;;;38.73;22.53;;;-5.60;99.90;;;;;;5014782;28;20423;-73
2022/12/04 05:25:57;;;;;;;43.90;23.70;;;-4.70;99.90;;;;;;5027017;28;20189;-78
2022/12/04 05:28:23;;;;;;;37.37;20.23;;;-5.30;99.90;;;;;;5014897;28;20435;-79
2022/12/04 05:31:01;;;;;;;35.73;20.87;;;-5.10;99.90;;;;;;5014836;28;20746;-74
2022/12/04 05:33:28;;;;;;;38.13;20.00;;;-5.30;99.90;;;;;;5015041;28;20605;-77
2022/12/04 05:36:02;;;;;;;41.80;21.33;;;-5.60;99.90;;;;;;5023254;28;20477;-77
2022/12/04 05:38:28;;;;;;;39.00;22.77;;;-5.90;99.90;;;;;;5014556;28;20418;-79
2022/12/04 05:40:56;;;;;;;35.70;21.57;;;-4.90;99.90;;;;;;5014996;28;20441;-77
2022/12/04 05:43:21;;;;;;;37.77;21.80;;;-5.80;99.90;;;;;;5014735;28;20204;-78
2022/12/04 05:45:47;;;;;;;42.50;22.87;;;-6.00;99.90;;;;;;5014809;28;20434;-76
2022/12/04 05:48:14;;;;;;;35.07;19.53;;;-6.60;99.90;;;;;;5014695;28;20177;-77
2022/12/04 05:50:40;;;;;;;36.27;20.93;;;-6.50;99.90;;;;;;5015174;28;20240;-80
2022/12/04 05:53:05;;;;;;;41.73;21.90;;;-6.20;99.90;;;;;;5014482;28;20458;-79
2022/12/04 05:55:31;;;;;;;39.20;22.67;;;-6.10;99.90;;;;;;5014541;28;20178;-80
2022/12/04 05:57:57;;;;;;;41.03;22.93;;;-6.10;99.90;;;;;;5020413;28;20182;-80
2022/12/04 06:00:23;;;;;;;38.17;21.10;;;-6.20;99.90;;;;;;5018339;28;20181;-78
2022/12/04 06:02:48;;;;;;;37.80;21.90;;;-6.10;99.90;;;;;;5018395;28;20272;-81
2022/12/04 06:05:14;;;;;;;42.87;23.50;;;-6.20;99.90;;;;;;5018202;28;20204;-78
2022/12/04 06:07:40;;;;;;;42.47;23.20;;;-6.00;99.90;;;;;;5018066;28;20585;-80
2022/12/04 06:10:06;;;;;;;36.97;21.27;;;-6.20;99.90;;;;;;5030445;28;20236;-80
2022/12/04 06:12:32;;;;;;;39.33;22.60;;;-6.30;99.90;;;;;;5018543;28;20204;-76
2022/12/04 06:14:58;;;;;;;38.50;21.30;;;-6.00;99.90;;;;;;5018170;28;20433;-73
2022/12/04 06:17:23;;;;;;;37.73;20.97;;;-5.70;99.90;;;;;;5018060;28;20430;-72
2022/12/04 06:19:49;;;;;;;36.40;24.13;;;-5.90;99.90;;;;;;5017912;28;20190;-72
2022/12/04 06:22:15;;;;;;;48.37;24.20;;;-5.90;99.90;;;;;;5017864;28;20189;-72
2022/12/04 06:24:40;;;;;;;40.57;23.73;;;-6.00;99.90;;;;;;5017930;28;20231;-77
2022/12/04 06:27:06;;;;;;;46.20;23.73;;;-5.80;99.90;;;;;;5030515;28;20185;-80
2022/12/04 06:29:32;;;;;;;41.80;25.10;;;-5.70;99.90;;;;;;5017569;28;20260;-78
2022/12/04 06:31:58;;;;;;;40.63;23.57;;;-4.30;99.90;;;;;;5022826;28;20263;-79
2022/12/04 06:34:24;;;;;;;43.33;21.33;;;-5.60;99.90;;;;;;5017681;28;20461;-77
2022/12/04 06:36:49;;;;;;;43.07;23.43;;;-5.50;99.90;;;;;;5017887;28;20612;-79
2022/12/04 06:39:15;;;;;;;38.97;22.83;;;-5.70;99.90;;;;;;5023884;28;20181;-75
2022/12/04 06:41:42;;;;;;;44.13;23.33;;;-5.80;99.90;;;;;;5026308;28;20185;-80
2022/12/04 06:44:08;;;;;;;41.97;23.63;;;-5.30;99.90;;;;;;5017421;28;20196;-77
2022/12/04 06:46:34;;;;;;;47.63;23.97;;;-5.50;99.90;;;;;;5018691;28;20437;-77
2022/12/04 06:49:01;;;;;;;42.03;23.97;;;-6.00;99.90;;;;;;5017280;28;20431;-77
2022/12/04 06:51:30;;;;;;;42.37;22.07;;;-5.90;99.90;;;;;;5017185;28;20231;-78
2022/12/04 06:53:57;;;;;;;44.00;23.17;;;-6.00;99.90;;;;;;5017405;28;20446;-79
2022/12/04 06:56:26;;;;;;;41.27;22.70;;;-6.00;99.90;;;;;;5017139;28;21236;-78
2022/12/04 06:58:54;;;;;;;45.80;23.53;;;-4.60;99.90;;;;;;5056104;28;20795;-75
2022/12/04 07:01:22;;;;;;;42.60;22.73;;;-5.70;99.90;;;;;;5017165;28;20893;-77
2022/12/04 07:03:48;;;;;;;42.07;22.60;;;-5.90;99.90;;;;;;5017312;28;20835;-76
2022/12/04 07:06:23;;;;;;;41.57;22.57;;;-5.70;99.90;;;;;;5016791;28;20433;-79
2022/12/04 07:08:51;;;;;;;41.47;23.60;;;-5.70;99.90;;;;;;5016631;28;20468;-77
2022/12/04 07:11:18;;;;;;;42.27;23.70;;;-5.80;99.90;;;;;;5030352;28;20897;-73
2022/12/04 07:13:44;;;;;;;39.33;22.60;;;-5.80;99.90;;;;;;5017094;28;20889;-77
2022/12/04 07:16:13;;;;;;;36.67;21.40;;;-5.90;99.90;;;;;;5016733;28;20526;-75
2022/12/04 07:18:39;;;;;;;38.37;22.40;;;-5.80;99.90;;;;;;5017008;28;20259;-74
2022/12/04 07:21:10;;;;;;;37.43;21.77;;;-5.50;99.90;;;;;;5016334;28;20792;-72
2022/12/04 07:23:36;;;;;;;44.57;25.20;;;-5.80;99.90;;;;;;5016504;28;20423;-76
2022/12/04 07:26:10;;;;;;;47.40;24.27;;;-5.60;99.90;;;;;;5016377;28;20496;-75
2022/12/04 07:28:37;;;;;;;42.60;22.57;;;-5.70;99.90;;;;;;5016673;28;20426;-78
2022/12/04 07:31:08;;;;;;;40.40;22.80;;;-5.60;99.90;;;;;;5017181;28;20461;-78
2022/12/04 07:33:34;;;;;;;41.63;22.43;;;-5.60;99.90;;;;;;5018849;28;20470;-78
2022/12/04 07:36:01;;;;;;;38.30;22.17;;;-5.90;99.90;;;;;;5048257;28;20466;-78
2022/12/04 07:38:28;;;;;;;37.47;21.33;;;-5.60;99.90;;;;;;5032957;28;20180;-77
2022/12/04 07:41:01;;;;;;;42.60;24.37;;;-5.80;99.90;;;;;;5016833;28;20430;-76
2022/12/04 07:43:28;;;;;;;43.10;23.20;;;-5.90;99.90;;;;;;5016807;28;20422;-72
2022/12/04 07:45:54;;;;;;;42.27;22.30;;;-6.00;99.90;;;;;;5016253;28;20423;-73
2022/12/04 07:48:20;;;;;;;39.53;25.33;;;-6.00;99.90;;;;;;5016785;28;20494;-72
2022/12/04 07:50:46;;;;;;;45.40;22.93;;;-5.90;99.90;;;;;;5016167;28;20280;-73
2022/12/04 07:53:12;;;;;;;39.60;25.30;;;-5.90;99.90;;;;;;5028599;28;20593;-73
2022/12/04 07:55:38;;;;;;;46.30;25.90;;;-5.70;99.90;;;;;;5016043;28;20185;-76
2022/12/04 07:58:03;;;;;;;44.90;25.40;;;-5.70;99.90;;;;;;5016143;28;20205;-76
2022/12/04 08:00:29;;;;;;;39.77;23.87;;;-5.40;99.90;;;;;;5019782;28;20185;-73
2022/12/04 08:03:01;;;;;;;41.27;25.20;;;-5.20;99.90;;;;;;5029629;28;20589;-77
2022/12/04 08:05:27;;;;;;;48.27;24.77;;;-5.30;99.90;;;;;;5028278;28;20192;-78
2022/12/04 08:07:53;;;;;;;47.00;26.73;;;-5.30;99.90;;;;;;5026796;28;20433;-75
2022/12/04 08:10:18;;;;;;;46.20;24.97;;;-5.40;99.90;;;;;;5017514;28;20209;-75
2022/12/04 08:12:44;;;;;;;46.23;24.43;;;-5.60;99.90;;;;;;5021949;28;20422;-75
2022/12/04 08:15:10;;;;;;;40.53;22.90;;;-5.60;99.90;;;;;;5028320;28;20458;-72
2022/12/04 08:17:35;;;;;;;39.60;21.60;;;-5.60;99.90;;;;;;5028773;28;20177;-74
2022/12/04 08:20:02;;;;;;;37.67;22.40;;;-5.50;99.90;;;;;;5021674;28;20633;-74
2022/12/04 08:22:27;;;;;;;42.07;24.77;;;-5.60;99.90;;;;;;5014490;28;20589;-74
2022/12/04 08:24:53;;;;;;;45.90;22.83;;;-5.80;99.90;;;;;;5015300;28;20445;-74
2022/12/04 08:27:19;;;;;;;41.00;23.40;;;-5.50;99.90;;;;;;5015947;28;20289;-73
2022/12/04 08:29:45;;;;;;;40.03;22.17;;;-5.10;99.90;;;;;;5015583;28;20555;-74
2022/12/04 08:32:10;;;;;;;39.57;24.23;;;-5.60;99.90;;;;;;5015428;28;20212;-74
2022/12/04 08:34:36;;;;;;;39.63;22.90;;;-5.60;99.90;;;;;;5015291;28;20177;-72
2022/12/04 08:37:02;;;;;;;45.73;23.90;;;-5.60;99.90;;;;;;5015602;28;20177;-77
2022/12/04 08:39:28;;;;;;;41.07;23.83;;;-5.20;99.90;;;;;;5019303;28;20239;-74
2022/12/04 08:41:53;;;;;;;43.03;23.83;;;-5.00;99.90;;;;;;5029768;28;20188;-75
2022/12/04 08:44:19;;;;;;;41.90;22.83;;;-5.20;99.90;;;;;;5027030;28;20185;-75
2022/12/04 08:46:45;;;;;;;38.90;22.33;;;-3.60;99.90;;;;;;5016020;28;20196;-76
2022/12/04 08:49:11;;;;;;;41.73;22.30;;;-5.40;99.90;;;;;;5015971;28;20201;-73
2022/12/04 08:51:36;;;;;;;40.60;22.53;;;-5.70;99.90;;;;;;5027634;28;20207;-77
2022/12/04 08:54:06;;;;;;;43.27;22.77;;;-5.90;99.90;;;;;;5015116;28;20511;-76
2022/12/04 08:56:34;;;;;;;38.27;22.13;;;-4.90;99.90;;;;;;5015472;28;20188;-79
2022/12/04 08:59:00;;;;;;;40.03;20.93;;;-6.70;99.90;;;;;;5014674;28;20515;-75
2022/12/04 09:01:27;;;;;;;45.03;25.87;;;-6.80;99.90;;;;;;5015325;28;20458;-76
2022/12/04 09:03:53;;;;;;;39.63;23.00;;;-6.50;99.90;;;;;;5015672;28;20443;-76
2022/12/04 09:06:20;;;;;;;39.50;22.33;;;-6.50;99.90;;;;;;5015071;28;20421;-79
2022/12/04 09:08:46;;;;;;;38.43;21.77;;;-5.30;99.90;;;;;;5014889;28;20732;-76
2022/12/04 09:11:17;;;;;;;37.53;21.20;;;-7.20;99.90;;;;;;5027699;28;20458;-79
2022/12/04 09:13:44;;;;;;;40.87;24.03;;;-6.50;99.90;;;;;;5015067;28;20178;-75
2022/12/04 09:16:13;;;;;;;46.47;22.07;;;-6.70;99.90;;;;;;5030589;28;20434;-75
2022/12/04 09:18:39;;;;;;;44.57;25.27;;;-6.60;99.90;;;;;;5015038;28;20858;-74
2022/12/04 09:21:08;;;;;;;38.20;22.10;;;-6.30;99.90;;;;;;5015222;28;20782;-78
2022/12/04 09:23:36;;;;;;;40.13;23.93;;;-6.30;99.90;;;;;;5015354;28;20517;-78
2022/12/04 09:26:03;;;;;;;43.77;25.03;;;-6.60;99.90;;;;;;5015146;28;20430;-76
2022/12/04 09:28:29;;;;;;;40.00;24.00;;;-7.40;99.90;;;;;;5014847;28;20431;-73
2022/12/04 09:30:56;;;;;;;41.00;23.33;;;-6.90;99.90;;;;;;5014798;28;20698;-74
2022/12/04 09:33:22;;;;;;;44.77;24.47;;;-7.20;99.90;;;;;;5017876;28;20177;-78
2022/12/04 09:35:48;;;;;;;39.23;21.33;;;-7.10;99.90;;;;;;5019078;28;20429;-77
2022/12/04 09:38:13;;;;;;;36.47;21.80;;;-7.40;99.90;;;;;;5018553;28;20177;-77
2022/12/04 09:41:04;;;;;;;37.67;22.43;;;-7.60;99.90;;;;;;5018788;28;20190;-76
2022/12/04 09:43:42;;;;;;;46.33;25.33;;;-7.20;99.90;;;;;;5018743;28;20204;-73
2022/12/04 09:46:17;;;;;;;40.43;23.70;;;-7.40;99.90;;;;;;5030682;28;20429;-76
2022/12/04 09:48:45;;;;;;;40.03;21.20;;;-7.40;99.90;;;;;;5032146;28;20432;-74
2022/12/04 09:51:17;;;;;;;37.43;24.10;;;-7.80;99.90;;;;;;5031778;28;20461;-78
2022/12/04 09:53:58;;;;;;;36.17;22.67;;;-6.00;99.90;;;;;;5031060;28;20471;-73
2022/12/04 09:56:27;;;;;;;37.47;21.23;;;-7.00;99.90;;;;;;5022068;28;20441;-76
2022/12/04 09:59:04;;;;;;;35.10;20.87;;;-7.10;99.90;;;;;;5018583;28;20513;-74
2022/12/04 10:01:53;;;;;;;33.17;20.90;;;-7.30;99.90;;;;;;5018047;28;20472;-79
2022/12/04 10:04:18;;;;;;;31.20;19.97;;;-7.50;99.90;;;;;;5017679;28;20449;-73
2022/12/04 10:07:00;;;;;;;35.53;21.03;;;-7.50;99.90;;;;;;5018331;28;20808;-73
2022/12/04 10:09:47;;;;;;;33.07;19.50;;;-7.40;99.90;;;;;;5017994;28;20197;-78
2022/12/04 10:12:39;;;;;;;33.03;20.43;;;-7.60;99.90;;;;;;5018452;28;20521;-73
2022/12/04 10:15:29;;;;;;;35.10;20.33;;;-7.20;99.90;;;;;;5022977;28;20438;-75
2022/12/04 10:18:18;;;;;;;34.37;20.13;;;-7.20;99.90;;;;;;5030883;28;20897;-72
2022/12/04 10:20:53;;;;;;;34.50;19.87;;;-6.90;99.90;;;;;;5016774;28;20445;-76
2022/12/04 10:23:22;;;;;;;34.90;18.67;;;-5.80;99.90;;;;;;5029519;28;20821;-76
2022/12/04 10:25:50;;;;;;;30.47;18.97;;;-6.30;99.90;;;;;;5028813;28;20743;-75
2022/12/04 10:28:30;;;;;;;27.73;18.83;;;-7.50;99.90;;;;;;5027921;28;20437;-71
2022/12/04 10:31:00;;;;;;;29.53;17.90;;;-7.00;99.90;;;;;;5028269;28;20461;-72
2022/12/04 10:33:41;;;;;;;27.67;17.70;;;-7.30;99.90;;;;;;5028499;28;20425;-73
2022/12/04 10:36:12;;;;;;;25.67;16.67;;;-7.10;99.90;;;;;;5031238;28;20516;-73
2022/12/04 10:38:55;;;;;;;29.50;20.23;;;-7.10;99.90;;;;;;5026390;28;20461;-75
2022/12/04 10:41:30;;;;;;;29.00;19.67;;;-6.80;99.90;;;;;;5029285;28;20433;-74
2022/12/04 10:43:56;;;;;;;32.37;20.10;;;-7.60;99.90;;;;;;5016491;28;20458;-74
2022/12/04 10:46:31;;;;;;;26.73;17.57;;;-7.60;99.90;;;;;;5020345;28;20585;-74
2022/12/04 10:49:12;;;;;;;26.70;17.80;;;-7.50;99.90;;;;;;5016643;28;20181;-73
2022/12/04 10:51:41;;;;;;;31.23;18.80;;;-7.20;99.90;;;;;;5016662;28;20939;-74
2022/12/04 10:54:36;;;;;;;30.53;19.30;;;-7.50;99.90;;;;;;5016791;28;20533;-73
2022/12/04 10:57:05;;;;;;;28.10;17.57;;;-7.30;99.90;;;;;;5030694;28;20530;-75
2022/12/04 10:59:31;;;;;;;26.33;16.50;;;-7.10;99.90;;;;;;5018338;28;20461;-72
2022/12/04 11:02:03;;;;;;;27.27;17.00;;;-7.50;99.90;;;;;;5025330;28;20886;-73
2022/12/04 11:04:30;;;;;;;30.30;18.83;;;-7.10;99.90;;;;;;5028417;28;20489;-71
2022/12/04 11:07:27;;;;;;;30.17;19.10;;;-7.40;99.90;;;;;;5025522;28;20438;-73
2022/12/04 11:09:55;;;;;;;34.03;20.17;;;-7.80;99.90;;;;;;5054253;28;20457;-74
2022/12/04 11:12:22;;;;;;;27.20;18.13;;;-7.40;99.90;;;;;;5031158;28;20475;-73
2022/12/04 11:14:59;;;;;;;26.40;16.93;;;-7.60;99.90;;;;;;5021613;28;20448;-73
2022/12/04 11:17:25;;;;;;;31.43;20.83;;;-5.80;99.90;;;;;;5025991;28;20452;-74
2022/12/04 11:20:07;;;;;;;31.47;20.50;;;-7.20;99.90;;;;;;5025960;28;20521;-76
2022/12/04 11:22:45;;;;;;;27.67;18.33;;;-7.50;99.90;;;;;;5021951;28;20238;-74
2022/12/04 11:25:17;;;;;;;27.67;15.77;;;-7.40;99.90;;;;;;5027260;28;20903;-72
2022/12/04 11:27:47;;;;;;;29.87;17.33;;;-7.40;99.90;;;;;;5021847;28;20473;-74
2022/12/04 11:30:18;;;;;;;23.30;15.00;;;-7.70;99.90;;;;;;5015830;28;20612;-73
2022/12/04 11:32:45;;;;;;;27.90;18.00;;;-7.60;99.90;;;;;;5023934;28;20518;-72
2022/12/04 11:35:20;;;;;;;28.73;18.93;;;-7.70;99.90;;;;;;5015865;28;20456;-74
2022/12/04 11:37:54;;;;;;;25.50;17.13;;;-7.70;99.90;;;;;;5020078;28;20885;-73
2022/12/04 11:40:20;;;;;;;23.83;16.10;;;-7.70;99.90;;;;;;5028267;28;20455;-74
2022/12/04 11:43:04;;;;;;;29.63;19.80;;;-7.80;99.90;;;;;;5015915;28;20465;-73
2022/12/04 11:45:31;;;;;;;24.10;16.97;;;-7.50;99.90;;;;;;5021963;28;20470;-75
2022/12/04 11:47:59;;;;;;;22.20;14.97;;;-7.80;99.90;;;;;;5015039;28;20818;-72
2022/12/04 11:50:52;;;;;;;24.60;16.53;;;-7.60;99.90;;;;;;5024749;28;20481;-73
2022/12/04 11:53:38;;;;;;;25.07;15.70;;;-7.30;99.90;;;;;;5029624;28;20441;-74
2022/12/04 11:56:36;;;;;;;23.30;16.07;;;-7.70;99.90;;;;;;5018506;28;20481;-75
2022/12/04 11:59:21;;;;;;;23.00;15.40;;;-7.50;99.90;;;;;;5015859;28;21062;-76
2022/12/04 12:02:20;;;;;;;25.57;16.93;;;-7.10;99.90;;;;;;5029682;28;20466;-73
2022/12/04 12:04:46;;;;;;;24.37;15.53;;;-7.20;99.90;;;;;;5027613;28;20757;-74
2022/12/04 12:07:20;;;;;;;24.33;15.57;;;-7.40;99.90;;;;;;5015019;28;20434;-79
2022/12/04 12:10:14;;;;;;;20.33;14.60;;;-7.60;99.90;;;;;;5015500;28;20212;-73
2022/12/04 12:13:23;;;;;;;22.00;13.40;;;-7.70;99.90;;;;;;5027683;28;21772;-75
2022/12/04 12:15:54;;;;;;;25.17;15.07;;;-7.20;99.90;;;;;;5017950;28;20438;-77
2022/12/04 12:18:47;;;;;;;21.70;15.13;;;-7.00;99.90;;;;;;5014721;28;20449;-78
2022/12/04 12:21:26;;;;;;;21.83;14.87;;;-7.40;99.90;;;;;;5028611;28;20435;-75
2022/12/04 12:24:08;;;;;;;27.13;13.83;;;-7.20;99.90;;;;;;5015058;28;20516;-73
2022/12/04 12:27:12;;;;;;;23.17;15.97;;;-7.10;99.90;;;;;;5023475;28;20441;-77
2022/12/04 12:29:47;;;;;;;22.77;14.30;;;-7.10;99.90;;;;;;5015321;28;20454;-78
2022/12/04 12:32:31;;;;;;;27.30;15.23;;;-7.00;99.90;;;;;;5029879;28;20984;-78
2022/12/04 12:34:58;;;;;;;22.03;14.20;;;-7.00;99.90;;;;;;5017142;28;20508;-75
2022/12/04 12:37:42;;;;;;;22.53;14.80;;;-7.20;99.90;;;;;;5014283;28;20489;-76
2022/12/04 12:40:09;;;;;;;30.97;16.60;;;-7.40;99.90;;;;;;5014597;28;20461;-79
2022/12/04 12:42:43;;;;;;;22.67;14.57;;;-7.10;99.90;;;;;;5028072;28;20449;-70
2022/12/04 12:45:24;;;;;;;26.00;13.50;;;-6.60;99.90;;;;;;5028460;28;20430;-71
2022/12/04 12:47:56;;;;;;;22.13;14.07;;;-7.40;99.90;;;;;;5028772;28;20736;-72
2022/12/04 12:50:45;;;;;;;19.50;14.20;;;-7.30;99.90;;;;;;5023207;28;20487;-74
2022/12/04 12:53:18;;;;;;;21.10;14.03;;;-7.20;99.90;;;;;;5027709;28;20454;-75
2022/12/04 12:55:52;;;;;;;23.03;14.93;;;-7.70;99.90;;;;;;5018412;28;20465;-73
2022/12/04 12:58:31;;;;;;;23.77;13.40;;;-7.60;99.90;;;;;;5026597;28;20528;-74
2022/12/04 13:01:20;;;;;;;22.37;16.57;;;-7.40;99.90;;;;;;5025818;28;20706;-75
2022/12/04 13:03:58;;;;;;;21.83;15.13;;;-7.50;99.90;;;;;;5029486;28;20760;-77